createdAt,value
2022-10-14T00:00:15.991Z,2.30
2022-10-14T00:00:46.558Z,2.10
2022-10-14T00:01:17.139Z,2.30
2022-10-14T00:01:47.770Z,2.20
2022-10-14T00:02:18.398Z,2.30
2022-10-14T00:02:49.003Z,2.20
2022-10-14T00:03:19.582Z,2.30
2022-10-14T00:03:50.143Z,2.20
2022-10-14T00:04:20.679Z,2.10
2022-10-14T00:04:51.231Z,2.50
2022-10-14T00:05:21.756Z,2.50
2022-10-14T00:05:52.351Z,2.30
2022-10-14T00:06:22.913Z,2.30
2022-10-14T00:06:53.532Z,2.50
2022-10-14T00:07:24.256Z,2.40
2022-10-14T00:07:54.814Z,2.20
2022-10-14T00:08:25.360Z,2.60
2022-10-14T00:08:55.904Z,2.20
2022-10-14T00:09:26.438Z,2.60
2022-10-14T00:09:56.987Z,2.40
2022-10-14T00:10:27.550Z,2.50
2022-10-14T00:10:58.110Z,2.50
2022-10-14T00:11:28.669Z,2.30
2022-10-14T00:11:59.248Z,2.70
2022-10-14T00:12:29.823Z,2.40
2022-10-14T00:13:00.375Z,2.60
2022-10-14T00:13:30.917Z,2.70
2022-10-14T00:14:01.476Z,2.40
2022-10-14T00:14:32.042Z,2.60
2022-10-14T00:15:02.613Z,2.40
2022-10-14T00:15:33.159Z,2.80
2022-10-14T00:16:03.725Z,2.40
2022-10-14T00:16:34.313Z,2.50
2022-10-14T00:17:04.897Z,2.50
2022-10-14T00:17:35.464Z,2.50
2022-10-14T00:18:06.006Z,2.70
2022-10-14T00:18:36.585Z,2.40
2022-10-14T00:19:07.132Z,2.70
2022-10-14T00:19:37.718Z,2.70
2022-10-14T00:20:08.283Z,2.70
2022-10-14T00:20:38.851Z,2.70
2022-10-14T00:21:09.401Z,2.90
2022-10-14T00:21:39.965Z,2.70
2022-10-14T00:22:10.588Z,2.90
2022-10-14T00:22:41.122Z,2.80
2022-10-14T00:23:11.683Z,2.80
2022-10-14T00:23:42.259Z,3.10
2022-10-14T00:24:12.841Z,2.40
2022-10-14T00:24:43.397Z,2.70
2022-10-14T00:25:13.973Z,2.60
2022-10-14T00:25:44.518Z,2.30
2022-10-14T00:26:15.098Z,2.80
2022-10-14T00:26:45.656Z,2.50
2022-10-14T00:27:16.239Z,2.60
2022-10-14T00:27:46.789Z,2.70
2022-10-14T00:28:17.423Z,2.60
2022-10-14T00:28:48.141Z,2.70
2022-10-14T00:29:18.785Z,2.70
2022-10-14T00:29:49.349Z,2.50
2022-10-14T00:30:19.977Z,2.60
2022-10-14T00:30:50.554Z,2.70
2022-10-14T00:31:21.130Z,2.40
2022-10-14T00:31:51.701Z,2.50
2022-10-14T00:32:22.278Z,2.80
2022-10-14T00:32:52.824Z,2.90
2022-10-14T00:33:23.401Z,2.70
2022-10-14T00:33:54.006Z,2.80
2022-10-14T00:34:24.557Z,2.70
2022-10-14T00:34:55.102Z,2.40
2022-10-14T00:35:25.645Z,2.70
2022-10-14T00:35:56.235Z,2.60
2022-10-14T00:36:26.779Z,3.00
2022-10-14T00:36:57.353Z,3.50
2022-10-14T00:37:27.964Z,2.90
2022-10-14T00:37:58.485Z,2.60
2022-10-14T00:38:29.028Z,3.00
2022-10-14T00:38:59.592Z,2.90
2022-10-14T00:39:30.166Z,2.60
2022-10-14T00:40:00.726Z,3.00
2022-10-14T00:40:31.291Z,2.90
2022-10-14T00:41:01.880Z,2.90
2022-10-14T00:41:32.471Z,3.20
2022-10-14T00:42:02.991Z,4.90
2022-10-14T00:42:33.542Z,2.80
2022-10-14T00:43:04.108Z,3.00
2022-10-14T00:43:34.653Z,3.80
2022-10-14T00:44:05.219Z,3.30
2022-10-14T00:44:35.793Z,3.30
2022-10-14T00:45:06.381Z,3.10
2022-10-14T00:45:36.952Z,3.00
2022-10-14T00:46:07.518Z,3.60
2022-10-14T00:46:38.096Z,3.20
2022-10-14T00:47:08.674Z,3.20
2022-10-14T00:47:39.211Z,3.20
2022-10-14T00:48:09.782Z,3.30
2022-10-14T00:48:40.313Z,2.90
2022-10-14T00:49:10.906Z,3.50
2022-10-14T00:49:41.478Z,3.20
2022-10-14T00:50:12.048Z,3.70
2022-10-14T00:50:42.632Z,3.10
2022-10-14T00:51:13.170Z,3.50
2022-10-14T00:51:43.748Z,3.30
2022-10-14T00:52:14.282Z,2.90
2022-10-14T00:52:44.855Z,3.10
2022-10-14T00:53:15.417Z,3.30
2022-10-14T00:53:46.001Z,3.30
2022-10-14T00:54:16.536Z,3.20
2022-10-14T00:54:47.118Z,3.60
2022-10-14T00:55:17.688Z,3.90
2022-10-14T00:55:48.213Z,3.10
2022-10-14T00:56:18.746Z,3.10
2022-10-14T00:56:49.314Z,3.20
2022-10-14T00:57:20.188Z,3.00
2022-10-14T00:57:50.420Z,3.40
2022-10-14T00:58:20.978Z,3.30
2022-10-14T00:58:51.570Z,3.10
2022-10-14T00:59:22.146Z,3.50
2022-10-14T00:59:52.711Z,3.10
2022-10-14T01:00:23.316Z,3.20
2022-10-14T01:00:53.982Z,3.40
2022-10-14T01:01:24.635Z,3.10
2022-10-14T01:01:55.190Z,2.90
2022-10-14T01:02:25.735Z,3.90
2022-10-14T01:02:56.312Z,3.30
2022-10-14T01:03:26.863Z,2.90
2022-10-14T01:03:57.415Z,3.40
2022-10-14T01:04:27.979Z,3.00
2022-10-14T01:04:58.557Z,3.00
2022-10-14T01:05:29.086Z,3.20
2022-10-14T01:05:59.652Z,3.20
2022-10-14T01:06:30.201Z,3.30
2022-10-14T01:07:00.739Z,3.30
2022-10-14T01:07:31.295Z,2.90
2022-10-14T01:08:01.850Z,3.30
2022-10-14T01:08:32.414Z,2.90
2022-10-14T01:09:03.036Z,3.40
2022-10-14T01:09:33.572Z,3.50
2022-10-14T01:10:04.119Z,3.10
2022-10-14T01:10:34.670Z,2.70
2022-10-14T01:11:05.229Z,3.10
2022-10-14T01:11:35.758Z,3.20
2022-10-14T01:12:27.646Z,3.00
2022-10-14T01:12:37.233Z,2.80
2022-10-14T01:13:07.786Z,3.10
2022-10-14T01:13:38.369Z,2.70
2022-10-14T01:14:08.953Z,2.70
2022-10-14T01:14:39.551Z,2.50
2022-10-14T01:15:10.126Z,2.60
2022-10-14T01:15:40.713Z,2.80
2022-10-14T01:16:11.283Z,2.80
2022-10-14T01:16:41.860Z,2.90
2022-10-14T01:17:12.416Z,3.10
2022-10-14T01:17:43.018Z,2.80
2022-10-14T01:18:13.575Z,3.00
2022-10-14T01:18:44.146Z,2.50
2022-10-14T01:19:14.737Z,3.20
2022-10-14T01:19:45.301Z,2.80
2022-10-14T01:20:15.869Z,2.90
2022-10-14T01:20:46.427Z,2.60
2022-10-14T01:21:16.981Z,2.90
2022-10-14T01:21:47.534Z,2.70
2022-10-14T01:22:22.159Z,3.10
2022-10-14T01:22:48.838Z,2.90
2022-10-14T01:23:19.409Z,2.80
2022-10-14T01:23:49.951Z,2.70
2022-10-14T01:24:20.487Z,2.70
2022-10-14T01:24:51.037Z,2.50
2022-10-14T01:25:21.610Z,2.80
2022-10-14T01:25:52.175Z,3.20
2022-10-14T01:26:22.756Z,3.10
2022-10-14T01:26:53.316Z,3.10
2022-10-14T01:27:23.857Z,2.70
2022-10-14T01:27:54.420Z,2.80
2022-10-14T01:28:25.076Z,3.30
2022-10-14T01:28:55.673Z,3.10
2022-10-14T01:29:26.284Z,2.60
2022-10-14T01:29:56.867Z,3.00
2022-10-14T01:30:27.404Z,2.80
2022-10-14T01:30:57.964Z,2.70
2022-10-14T01:31:28.526Z,3.00
2022-10-14T01:31:59.067Z,3.00
2022-10-14T01:32:29.595Z,3.10
2022-10-14T01:33:00.170Z,2.80
2022-10-14T01:33:30.746Z,2.50
2022-10-14T01:34:01.291Z,2.80
2022-10-14T01:34:31.847Z,3.10
2022-10-14T01:35:02.407Z,3.30
2022-10-14T01:35:32.963Z,2.70
2022-10-14T01:36:03.526Z,2.90
2022-10-14T01:36:34.069Z,2.60
2022-10-14T01:37:04.617Z,2.40
2022-10-14T01:37:35.173Z,2.70
2022-10-14T01:38:05.715Z,2.30
2022-10-14T01:38:36.301Z,2.80
2022-10-14T01:39:06.865Z,2.60
2022-10-14T01:39:37.418Z,2.50
2022-10-14T01:40:07.994Z,2.80
2022-10-14T01:40:38.520Z,2.40
2022-10-14T01:41:09.084Z,2.50
2022-10-14T01:41:39.678Z,2.60
2022-10-14T01:42:10.235Z,2.90
2022-10-14T01:42:40.831Z,2.30
2022-10-14T01:43:11.405Z,2.60
2022-10-14T01:43:41.941Z,3.00
2022-10-14T01:44:12.525Z,2.50
2022-10-14T01:44:43.123Z,2.60
2022-10-14T01:45:13.684Z,2.60
2022-10-14T01:45:44.236Z,2.40
2022-10-14T01:46:14.800Z,2.60
2022-10-14T01:46:45.362Z,2.50
2022-10-14T01:47:15.939Z,2.20
2022-10-14T01:47:46.514Z,2.40
2022-10-14T01:48:17.088Z,2.30
2022-10-14T01:48:47.644Z,2.60
2022-10-14T01:49:18.233Z,2.50
2022-10-14T01:49:48.769Z,2.40
2022-10-14T01:50:19.334Z,2.60
2022-10-14T01:50:49.872Z,2.20
2022-10-14T01:51:20.436Z,2.30
2022-10-14T01:51:51.027Z,2.40
2022-10-14T01:52:21.902Z,2.50
2022-10-14T01:52:52.628Z,2.30
2022-10-14T01:53:23.208Z,2.90
2022-10-14T01:53:53.800Z,2.40
2022-10-14T01:54:24.335Z,2.40
2022-10-14T01:54:54.894Z,2.40
2022-10-14T01:55:25.444Z,2.30
2022-10-14T01:55:55.969Z,2.70
2022-10-14T01:56:26.544Z,2.20
2022-10-14T01:56:57.091Z,2.40
2022-10-14T01:57:27.668Z,2.40
2022-10-14T01:57:58.211Z,2.40
2022-10-14T01:58:28.766Z,2.60
2022-10-14T01:58:59.331Z,2.40
2022-10-14T01:59:29.909Z,2.70
2022-10-14T02:00:00.466Z,2.70
2022-10-14T02:00:31.021Z,2.60
2022-10-14T02:01:01.606Z,2.50
2022-10-14T02:01:32.287Z,2.30
2022-10-14T02:02:02.910Z,2.50
2022-10-14T02:02:33.480Z,2.10
2022-10-14T02:03:04.055Z,2.60
2022-10-14T02:03:34.591Z,2.30
2022-10-14T02:04:05.149Z,2.30
2022-10-14T02:04:35.709Z,2.40
2022-10-14T02:05:06.291Z,2.20
2022-10-14T02:05:36.844Z,2.60
2022-10-14T02:06:07.410Z,2.40
2022-10-14T02:06:38.022Z,2.70
2022-10-14T02:07:08.574Z,2.30
2022-10-14T02:07:39.146Z,2.50
2022-10-14T02:08:09.732Z,2.20
2022-10-14T02:08:40.308Z,2.50
2022-10-14T02:09:10.858Z,2.30
2022-10-14T02:09:41.389Z,2.60
2022-10-14T02:10:11.944Z,2.00
2022-10-14T02:10:42.545Z,2.20
2022-10-14T02:11:13.139Z,2.10
2022-10-14T02:11:43.715Z,2.00
2022-10-14T02:12:14.286Z,2.40
2022-10-14T02:12:44.871Z,2.00
2022-10-14T02:13:15.471Z,2.70
2022-10-14T02:13:46.017Z,2.60
2022-10-14T02:14:16.639Z,2.40
2022-10-14T02:14:47.219Z,2.30
2022-10-14T02:15:17.762Z,2.70
2022-10-14T02:15:48.321Z,2.20
2022-10-14T02:16:18.887Z,2.70
2022-10-14T02:16:49.446Z,2.60
2022-10-14T02:17:19.998Z,2.60
2022-10-14T02:17:50.559Z,2.60
2022-10-14T02:18:21.104Z,2.70
2022-10-14T02:18:51.654Z,2.70
2022-10-14T02:19:22.257Z,2.30
2022-10-14T02:19:52.823Z,2.70
2022-10-14T02:20:23.703Z,2.80
2022-10-14T02:20:54.265Z,2.50
2022-10-14T02:21:24.833Z,2.70
2022-10-14T02:21:55.404Z,2.80
2022-10-14T02:22:25.975Z,3.00
2022-10-14T02:22:56.544Z,2.80
2022-10-14T02:23:27.098Z,2.60
2022-10-14T02:23:57.662Z,2.50
2022-10-14T02:24:28.258Z,2.90
2022-10-14T02:24:58.811Z,2.80
2022-10-14T02:25:29.395Z,2.90
2022-10-14T02:25:59.950Z,3.00
2022-10-14T02:26:30.555Z,3.30
2022-10-14T02:27:01.144Z,3.00
2022-10-14T02:27:31.707Z,2.90
2022-10-14T02:28:02.282Z,2.70
2022-10-14T02:28:32.921Z,2.70
2022-10-14T02:29:03.464Z,2.90
2022-10-14T02:29:34.028Z,2.90
2022-10-14T02:30:04.610Z,2.70
2022-10-14T02:30:35.159Z,3.20
2022-10-14T02:31:05.746Z,2.70
2022-10-14T02:31:36.320Z,3.40
2022-10-14T02:32:06.912Z,2.70
2022-10-14T02:32:37.491Z,2.70
2022-10-14T02:33:08.025Z,3.20
2022-10-14T02:33:38.612Z,3.40
2022-10-14T02:34:09.175Z,3.20
2022-10-14T02:34:39.746Z,3.00
2022-10-14T02:35:10.293Z,2.90
2022-10-14T02:35:40.826Z,2.90
2022-10-14T02:36:11.868Z,3.10
2022-10-14T02:36:42.411Z,2.60
2022-10-14T02:37:12.990Z,3.00
2022-10-14T02:37:43.546Z,3.40
2022-10-14T02:38:14.105Z,3.30
2022-10-14T02:38:44.677Z,3.20
2022-10-14T02:39:15.241Z,3.10
2022-10-14T02:39:45.828Z,3.20
2022-10-14T02:40:16.369Z,2.90
2022-10-14T02:40:46.932Z,3.00
2022-10-14T02:41:17.486Z,3.10
2022-10-14T02:41:48.045Z,2.70
2022-10-14T02:42:18.980Z,3.40
2022-10-14T02:42:49.207Z,2.90
2022-10-14T02:43:19.770Z,2.80
2022-10-14T02:43:50.323Z,3.10
2022-10-14T02:44:20.884Z,3.50
2022-10-14T02:44:51.492Z,3.00
2022-10-14T02:45:22.067Z,3.40
2022-10-14T02:45:52.667Z,3.30
2022-10-14T02:46:23.231Z,2.90
2022-10-14T02:46:53.780Z,3.10
2022-10-14T02:47:24.328Z,2.90
2022-10-14T02:47:54.905Z,2.70
2022-10-14T02:48:25.480Z,3.00
2022-10-14T02:48:56.053Z,2.60
2022-10-14T02:49:26.641Z,2.60
2022-10-14T02:49:57.169Z,3.10
2022-10-14T02:50:27.762Z,3.00
2022-10-14T02:50:58.362Z,2.80
2022-10-14T02:51:28.931Z,3.10
2022-10-14T02:51:59.496Z,2.90
2022-10-14T02:52:30.065Z,3.50
2022-10-14T02:53:00.602Z,2.90
2022-10-14T02:53:31.180Z,2.80
2022-10-14T02:54:01.719Z,2.80
2022-10-14T02:54:32.292Z,3.20
2022-10-14T02:55:02.915Z,2.70
2022-10-14T02:55:33.449Z,2.90
2022-10-14T02:56:04.039Z,2.70
2022-10-14T02:56:34.607Z,3.20
2022-10-14T02:57:05.186Z,2.90
2022-10-14T02:57:35.724Z,3.40
2022-10-14T02:58:06.308Z,3.00
2022-10-14T02:58:36.876Z,3.10
2022-10-14T02:59:07.449Z,2.80
2022-10-14T02:59:38.028Z,2.80
2022-10-14T03:00:08.563Z,3.10
2022-10-14T03:00:39.138Z,3.40
2022-10-14T03:01:09.700Z,2.90
2022-10-14T03:01:40.315Z,3.20
2022-10-14T03:02:10.997Z,3.20
2022-10-14T03:02:41.598Z,3.20
2022-10-14T03:03:12.169Z,2.90
2022-10-14T03:03:42.736Z,3.20
2022-10-14T03:04:13.281Z,2.80
2022-10-14T03:04:43.858Z,3.00
2022-10-14T03:05:14.418Z,2.90
2022-10-14T03:05:44.983Z,3.20
2022-10-14T03:06:15.544Z,2.90
2022-10-14T03:06:46.120Z,3.10
2022-10-14T03:07:16.694Z,2.50
2022-10-14T03:07:47.272Z,3.00
2022-10-14T03:08:17.830Z,2.70
2022-10-14T03:08:48.387Z,3.20
2022-10-14T03:09:18.965Z,2.90
2022-10-14T03:09:49.567Z,3.10
2022-10-14T03:10:20.150Z,3.20
2022-10-14T03:10:50.699Z,3.00
2022-10-14T03:11:21.297Z,3.20
2022-10-14T03:11:51.849Z,2.70
2022-10-14T03:12:22.770Z,3.20
2022-10-14T03:12:52.997Z,3.40
2022-10-14T03:13:23.589Z,2.80
2022-10-14T03:13:54.164Z,3.00
2022-10-14T03:14:24.741Z,2.60
2022-10-14T03:14:55.304Z,2.90
2022-10-14T03:15:25.836Z,2.80
2022-10-14T03:15:56.432Z,3.10
2022-10-14T03:16:27.016Z,2.80
2022-10-14T03:16:57.575Z,3.10
2022-10-14T03:17:28.109Z,2.70
2022-10-14T03:17:58.692Z,3.20
2022-10-14T03:18:29.232Z,3.00
2022-10-14T03:18:59.777Z,2.90
2022-10-14T03:19:30.359Z,3.50
2022-10-14T03:20:00.943Z,2.80
2022-10-14T03:20:31.514Z,3.10
2022-10-14T03:21:02.065Z,2.60
2022-10-14T03:21:32.619Z,3.00
2022-10-14T03:22:03.144Z,3.10
2022-10-14T03:22:33.737Z,3.00
2022-10-14T03:23:04.323Z,2.80
2022-10-14T03:23:34.884Z,3.10
2022-10-14T03:24:05.449Z,2.90
2022-10-14T03:24:36.013Z,2.80
2022-10-14T03:25:06.576Z,3.30
2022-10-14T03:25:37.196Z,3.20
2022-10-14T03:26:11.815Z,3.60
2022-10-14T03:26:38.525Z,2.80
2022-10-14T03:27:09.093Z,2.90
2022-10-14T03:27:39.677Z,3.20
2022-10-14T03:28:10.213Z,3.00
2022-10-14T03:28:40.895Z,3.20
2022-10-14T03:29:11.453Z,2.70
2022-10-14T03:29:42.002Z,2.90
2022-10-14T03:30:12.577Z,3.10
2022-10-14T03:30:43.156Z,2.50
2022-10-14T03:31:13.728Z,3.30
2022-10-14T03:31:44.285Z,3.30
2022-10-14T03:32:14.848Z,2.90
2022-10-14T03:32:45.421Z,2.80
2022-10-14T03:33:18.638Z,2.50
2022-10-14T03:33:46.797Z,2.90
2022-10-14T03:34:17.344Z,3.00
2022-10-14T03:34:47.908Z,3.00
2022-10-14T03:35:18.445Z,3.00
2022-10-14T03:35:49.017Z,2.80
2022-10-14T03:36:19.550Z,3.40
2022-10-14T03:36:50.121Z,3.10
2022-10-14T03:37:20.709Z,3.30
2022-10-14T03:37:51.275Z,2.80
2022-10-14T03:38:21.848Z,2.90
2022-10-14T03:38:52.400Z,3.40
2022-10-14T03:39:22.936Z,2.80
2022-10-14T03:39:53.484Z,3.00
2022-10-14T03:40:24.054Z,2.80
2022-10-14T03:40:54.655Z,3.20
2022-10-14T03:41:25.187Z,2.70
2022-10-14T03:41:55.778Z,3.00
2022-10-14T03:42:26.344Z,2.90
2022-10-14T03:42:56.931Z,2.80
2022-10-14T03:43:27.510Z,2.50
2022-10-14T03:43:58.063Z,2.90
2022-10-14T03:44:28.641Z,3.00
2022-10-14T03:44:59.235Z,3.00
2022-10-14T03:45:29.789Z,2.70
2022-10-14T03:46:00.339Z,3.10
2022-10-14T03:46:30.901Z,2.80
2022-10-14T03:47:01.470Z,2.90
2022-10-14T03:47:32.035Z,3.10
2022-10-14T03:48:02.609Z,2.90
2022-10-14T03:48:33.231Z,3.30
2022-10-14T03:49:03.821Z,3.20
2022-10-14T03:49:34.395Z,2.90
2022-10-14T03:50:04.981Z,3.20
2022-10-14T03:50:35.519Z,3.50
2022-10-14T03:51:06.064Z,3.20
2022-10-14T03:51:36.633Z,3.50
2022-10-14T03:52:07.190Z,2.80
2022-10-14T03:52:37.769Z,3.10
2022-10-14T03:53:08.336Z,3.10
2022-10-14T03:53:38.905Z,3.10
2022-10-14T03:54:09.442Z,3.20
2022-10-14T03:54:40.007Z,3.00
2022-10-14T03:55:10.582Z,3.40
2022-10-14T03:55:41.155Z,3.60
2022-10-14T03:56:11.715Z,3.70
2022-10-14T03:56:42.255Z,3.50
2022-10-14T03:57:12.826Z,4.10
2022-10-14T03:57:43.436Z,3.90
2022-10-14T03:58:14.001Z,5.40
2022-10-14T03:58:44.547Z,6.30
2022-10-14T03:59:15.131Z,6.10
2022-10-14T03:59:45.694Z,5.70
2022-10-14T04:00:16.736Z,5.20
2022-10-14T04:00:47.314Z,5.70
2022-10-14T04:01:17.849Z,5.00
2022-10-14T04:01:48.517Z,5.10
2022-10-14T04:02:19.384Z,5.20
2022-10-14T04:02:49.762Z,4.90
2022-10-14T04:03:20.328Z,4.70
2022-10-14T04:03:50.922Z,5.10
2022-10-14T04:04:21.622Z,4.40
2022-10-14T04:04:52.912Z,4.80
2022-10-14T04:05:22.914Z,4.20
2022-10-14T04:05:53.485Z,3.90
2022-10-14T04:06:24.030Z,4.00
2022-10-14T04:06:54.600Z,3.50
2022-10-14T04:07:25.145Z,3.90
2022-10-14T04:07:55.685Z,3.70
2022-10-14T04:08:26.283Z,3.80
2022-10-14T04:08:56.897Z,3.40
2022-10-14T04:09:27.468Z,3.60
2022-10-14T04:09:57.995Z,3.50
2022-10-14T04:10:28.561Z,3.30
2022-10-14T04:10:59.124Z,3.00
2022-10-14T04:11:29.725Z,3.70
2022-10-14T04:12:00.271Z,3.30
2022-10-14T04:12:30.833Z,3.30
2022-10-14T04:13:01.400Z,3.10
2022-10-14T04:13:31.966Z,2.90
2022-10-14T04:14:02.537Z,3.00
2022-10-14T04:14:33.111Z,3.20
2022-10-14T04:15:03.713Z,3.20
2022-10-14T04:15:34.244Z,3.20
2022-10-14T04:16:04.811Z,3.00
2022-10-14T04:16:35.379Z,2.80
2022-10-14T04:17:05.959Z,3.10
2022-10-14T04:17:36.548Z,3.20
2022-10-14T04:18:07.129Z,3.10
2022-10-14T04:18:37.658Z,3.00
2022-10-14T04:19:08.257Z,3.10
2022-10-14T04:19:38.840Z,3.00
2022-10-14T04:20:09.407Z,2.90
2022-10-14T04:20:39.934Z,2.90
2022-10-14T04:21:10.514Z,2.80
2022-10-14T04:21:41.056Z,3.00
2022-10-14T04:22:11.634Z,2.90
2022-10-14T04:22:42.202Z,2.80
2022-10-14T04:23:12.758Z,2.40
2022-10-14T04:23:43.335Z,4.10
2022-10-14T04:24:13.910Z,3.00
2022-10-14T04:24:44.484Z,2.70
2022-10-14T04:25:15.064Z,2.70
2022-10-14T04:25:45.644Z,3.30
2022-10-14T04:26:16.207Z,3.20
2022-10-14T04:26:46.805Z,3.00
2022-10-14T04:27:17.370Z,2.90
2022-10-14T04:27:47.961Z,3.30
2022-10-14T04:28:18.530Z,3.30
2022-10-14T04:28:49.168Z,2.80
2022-10-14T04:29:19.740Z,3.20
2022-10-14T04:29:50.295Z,3.10
2022-10-14T04:30:20.868Z,3.20
2022-10-14T04:30:51.424Z,3.40
2022-10-14T04:31:21.978Z,3.20
2022-10-14T04:31:52.547Z,3.10
2022-10-14T04:32:23.534Z,3.00
2022-10-14T04:32:53.858Z,3.00
2022-10-14T04:33:24.437Z,3.20
2022-10-14T04:33:55.017Z,3.00
2022-10-14T04:34:25.582Z,2.80
2022-10-14T04:34:56.148Z,3.00
2022-10-14T04:35:26.721Z,3.10
2022-10-14T04:35:57.302Z,2.90
2022-10-14T04:36:27.869Z,3.10
2022-10-14T04:36:58.479Z,2.90
2022-10-14T04:37:29.003Z,2.90
2022-10-14T04:37:59.533Z,3.30
2022-10-14T04:38:30.093Z,3.10
2022-10-14T04:39:00.674Z,3.30
2022-10-14T04:39:31.226Z,2.90
2022-10-14T04:40:01.815Z,3.00
2022-10-14T04:40:32.376Z,2.90
2022-10-14T04:41:02.905Z,3.30
2022-10-14T04:41:33.483Z,2.80
2022-10-14T04:42:04.075Z,3.20
2022-10-14T04:42:34.610Z,3.10
2022-10-14T04:43:05.167Z,2.80
2022-10-14T04:43:35.742Z,3.00
2022-10-14T04:44:06.315Z,3.10
2022-10-14T04:44:36.885Z,2.90
2022-10-14T04:45:07.449Z,3.10
2022-10-14T04:45:38.048Z,3.20
2022-10-14T04:46:08.664Z,2.80
2022-10-14T04:46:39.235Z,3.30
2022-10-14T04:47:09.775Z,3.20
2022-10-14T04:47:43.860Z,3.00
2022-10-14T04:48:11.160Z,3.20
2022-10-14T04:48:41.728Z,3.20
2022-10-14T04:49:12.278Z,2.70
2022-10-14T04:49:42.859Z,3.40
2022-10-14T04:50:13.453Z,3.00
2022-10-14T04:50:44.036Z,2.80
2022-10-14T04:51:14.635Z,3.10
2022-10-14T04:51:45.196Z,3.20
2022-10-14T04:52:15.742Z,2.90
2022-10-14T04:52:46.305Z,2.90
2022-10-14T04:53:21.723Z,3.40
2022-10-14T04:53:47.642Z,2.60
2022-10-14T04:54:18.182Z,3.00
2022-10-14T04:54:48.799Z,2.80
2022-10-14T04:55:19.386Z,3.10
2022-10-14T04:55:49.928Z,3.20
2022-10-14T04:56:20.473Z,2.90
2022-10-14T04:56:51.051Z,4.30
2022-10-14T04:57:21.645Z,2.70
2022-10-14T04:57:52.194Z,3.10
2022-10-14T04:58:22.761Z,3.10
2022-10-14T04:58:53.332Z,2.80
2022-10-14T04:59:23.920Z,3.30
2022-10-14T04:59:54.499Z,3.20
2022-10-14T05:00:25.073Z,3.30
2022-10-14T05:00:55.631Z,2.90
2022-10-14T05:01:30.265Z,3.20
2022-10-14T05:01:57.108Z,3.10
2022-10-14T05:02:27.682Z,3.30
2022-10-14T05:02:58.311Z,3.10
2022-10-14T05:03:28.881Z,2.70
2022-10-14T05:03:59.484Z,3.30
2022-10-14T05:04:30.233Z,2.90
2022-10-14T05:05:01.372Z,3.10
2022-10-14T05:05:31.470Z,3.10
2022-10-14T05:06:02.247Z,3.50
2022-10-14T05:06:32.801Z,3.10
2022-10-14T05:07:03.342Z,3.10
2022-10-14T05:07:33.943Z,3.60
2022-10-14T05:08:04.544Z,3.20
2022-10-14T05:08:35.138Z,3.10
2022-10-14T05:09:05.715Z,3.30
2022-10-14T05:09:36.286Z,3.20
2022-10-14T05:10:06.849Z,3.30
2022-10-14T05:10:37.407Z,3.40
2022-10-14T05:11:07.996Z,3.30
2022-10-14T05:11:38.528Z,2.90
2022-10-14T05:12:09.101Z,3.20
2022-10-14T05:12:39.694Z,3.30
2022-10-14T05:13:10.261Z,3.20
2022-10-14T05:13:40.766Z,3.10
2022-10-14T05:14:11.284Z,3.10
2022-10-14T05:14:42.317Z,3.20
2022-10-14T05:15:13.340Z,3.20
2022-10-14T05:15:44.404Z,3.30
2022-10-14T05:16:15.404Z,3.20
2022-10-14T05:16:46.461Z,3.20
2022-10-14T05:17:17.062Z,3.30
2022-10-14T05:17:47.630Z,3.10
2022-10-14T05:18:18.196Z,2.80
2022-10-14T05:18:48.706Z,2.80
2022-10-14T05:19:19.212Z,3.20
2022-10-14T05:19:50.254Z,3.00
2022-10-14T05:20:20.784Z,3.30
2022-10-14T05:20:51.823Z,3.20
2022-10-14T05:21:22.359Z,3.50
2022-10-14T05:21:52.899Z,3.00
2022-10-14T05:22:24.232Z,2.90
2022-10-14T05:22:54.950Z,3.20
2022-10-14T05:23:25.461Z,3.10
2022-10-14T05:23:56.501Z,2.70
2022-10-14T05:24:27.022Z,2.90
2022-10-14T05:24:57.547Z,3.40
2022-10-14T05:25:28.118Z,3.20
2022-10-14T05:25:58.597Z,3.40
2022-10-14T05:26:29.113Z,3.30
2022-10-14T05:26:59.638Z,3.30
2022-10-14T05:27:30.658Z,3.30
2022-10-14T05:28:01.739Z,3.30
2022-10-14T05:28:32.305Z,3.40
2022-10-14T05:29:02.883Z,3.40
2022-10-14T05:29:33.417Z,3.00
2022-10-14T05:30:04.422Z,3.50
2022-10-14T05:30:35.417Z,3.30
2022-10-14T05:31:06.426Z,3.50
2022-10-14T05:31:37.436Z,3.60
2022-10-14T05:32:07.967Z,3.40
2022-10-14T05:32:39.018Z,2.90
2022-10-14T05:33:10.061Z,3.20
2022-10-14T05:33:40.590Z,3.00
2022-10-14T05:34:11.607Z,3.10
2022-10-14T05:34:42.612Z,3.40
2022-10-14T05:35:13.656Z,3.10
2022-10-14T05:35:58.713Z,3.20
2022-10-14T05:36:14.893Z,3.20
2022-10-14T05:36:45.928Z,3.10
2022-10-14T05:37:16.968Z,3.30
2022-10-14T05:37:47.518Z,3.50
2022-10-14T05:38:18.513Z,3.30
2022-10-14T05:38:49.524Z,3.40
2022-10-14T05:39:20.549Z,3.50
2022-10-14T05:39:51.077Z,3.00
2022-10-14T05:40:22.078Z,3.30
2022-10-14T05:40:53.095Z,3.30
2022-10-14T05:41:23.643Z,3.20
2022-10-14T05:41:54.143Z,3.10
2022-10-14T05:42:25.295Z,3.20
2022-10-14T05:42:55.874Z,3.30
2022-10-14T05:43:32.162Z,3.30
2022-10-14T05:43:57.612Z,3.20
2022-10-14T05:44:28.173Z,3.30
2022-10-14T05:44:59.181Z,3.50
2022-10-14T05:45:30.213Z,3.50
2022-10-14T05:46:01.223Z,3.90
2022-10-14T05:46:32.283Z,3.50
2022-10-14T05:47:02.801Z,3.40
2022-10-14T05:47:33.822Z,3.70
2022-10-14T05:48:04.853Z,3.30
2022-10-14T05:48:35.379Z,3.40
2022-10-14T05:49:05.918Z,3.70
2022-10-14T05:49:36.528Z,3.10
2022-10-14T05:50:07.014Z,3.20
2022-10-14T05:50:38.047Z,3.70
2022-10-14T05:51:09.075Z,3.80
2022-10-14T05:51:40.157Z,3.50
2022-10-14T05:52:10.665Z,3.80
2022-10-14T05:52:41.699Z,3.60
2022-10-14T05:53:12.704Z,3.60
2022-10-14T05:53:43.723Z,3.50
2022-10-14T05:54:14.240Z,3.70
2022-10-14T05:54:44.797Z,3.20
2022-10-14T05:55:15.800Z,3.50
2022-10-14T05:55:46.810Z,3.30
2022-10-14T05:56:17.849Z,3.40
2022-10-14T05:56:48.857Z,3.30
2022-10-14T05:57:19.899Z,3.70
2022-10-14T05:57:50.936Z,3.60
2022-10-14T05:58:21.962Z,3.30
2022-10-14T05:58:52.985Z,3.90
2022-10-14T05:59:23.990Z,3.50
2022-10-14T05:59:55.003Z,3.20
2022-10-14T06:00:25.998Z,3.50
2022-10-14T06:00:56.058Z,3.20
2022-10-14T06:01:27.076Z,3.50
2022-10-14T06:01:58.104Z,3.50
2022-10-14T06:02:29.174Z,3.80
2022-10-14T06:02:59.797Z,3.40
2022-10-14T06:03:30.361Z,3.50
2022-10-14T06:04:00.875Z,3.40
2022-10-14T06:04:31.413Z,4.00
2022-10-14T06:05:02.407Z,3.40
2022-10-14T06:05:33.438Z,3.30
2022-10-14T06:06:03.968Z,3.30
2022-10-14T06:06:34.991Z,3.10
2022-10-14T06:07:05.533Z,3.10
2022-10-14T06:07:36.079Z,3.30
2022-10-14T06:08:06.591Z,3.30
2022-10-14T06:08:37.596Z,3.90
2022-10-14T06:09:11.338Z,3.30
2022-10-14T06:09:39.531Z,3.00
2022-10-14T06:10:10.055Z,3.30
2022-10-14T06:10:40.575Z,3.20
2022-10-14T06:11:11.593Z,3.30
2022-10-14T06:11:42.631Z,3.70
2022-10-14T06:12:13.700Z,3.60
2022-10-14T06:12:44.237Z,3.20
2022-10-14T06:13:14.740Z,3.00
2022-10-14T06:13:45.769Z,3.30
2022-10-14T06:14:16.343Z,3.30
2022-10-14T06:14:46.844Z,3.20
2022-10-14T06:15:17.856Z,3.20
2022-10-14T06:15:48.862Z,3.20
2022-10-14T06:16:19.851Z,3.10
2022-10-14T06:16:50.883Z,3.10
2022-10-14T06:17:21.897Z,3.10
2022-10-14T06:17:52.924Z,3.00
2022-10-14T06:18:23.442Z,3.10
2022-10-14T06:18:54.831Z,3.50
2022-10-14T06:19:25.354Z,3.00
2022-10-14T06:19:55.853Z,3.50
2022-10-14T06:20:26.942Z,3.20
2022-10-14T06:20:57.459Z,3.20
2022-10-14T06:21:28.485Z,3.30
2022-10-14T06:21:59.508Z,3.30
2022-10-14T06:22:30.504Z,3.10
2022-10-14T06:23:01.585Z,3.10
2022-10-14T06:23:32.581Z,2.80
2022-10-14T06:24:03.100Z,3.00
2022-10-14T06:24:34.107Z,3.20
2022-10-14T06:25:04.824Z,3.30
2022-10-14T06:25:35.320Z,3.00
2022-10-14T06:26:06.339Z,3.10
2022-10-14T06:26:37.348Z,2.90
2022-10-14T06:27:08.391Z,3.00
2022-10-14T06:27:38.900Z,3.20
2022-10-14T06:28:09.935Z,3.20
2022-10-14T06:28:41.044Z,3.00
2022-10-14T06:29:11.576Z,3.00
2022-10-14T06:29:42.625Z,3.20
2022-10-14T06:30:13.650Z,3.10
2022-10-14T06:30:44.156Z,2.90
2022-10-14T06:31:15.186Z,3.50
2022-10-14T06:31:46.207Z,3.00
2022-10-14T06:32:16.747Z,3.10
2022-10-14T06:32:47.759Z,3.20
2022-10-14T06:33:18.780Z,2.60
2022-10-14T06:33:49.782Z,3.20
2022-10-14T06:34:20.816Z,3.10
2022-10-14T06:34:51.847Z,3.10
2022-10-14T06:35:22.899Z,3.60
2022-10-14T06:35:53.455Z,2.90
2022-10-14T06:36:23.986Z,3.20
2022-10-14T06:36:58.516Z,3.10
2022-10-14T06:37:25.235Z,2.70
2022-10-14T06:37:56.264Z,3.00
2022-10-14T06:38:27.259Z,3.40
2022-10-14T06:38:58.284Z,2.60
2022-10-14T06:39:29.319Z,3.00
2022-10-14T06:40:00.351Z,3.00
2022-10-14T06:40:31.357Z,2.70
2022-10-14T06:41:02.389Z,3.40
2022-10-14T06:41:32.923Z,3.10
2022-10-14T06:42:03.932Z,3.40
2022-10-14T06:42:34.470Z,3.20
2022-10-14T06:43:04.993Z,3.20
2022-10-14T06:43:35.546Z,2.90
2022-10-14T06:44:06.061Z,2.90
2022-10-14T06:44:37.082Z,3.10
2022-10-14T06:45:08.148Z,3.80
2022-10-14T06:45:39.172Z,3.40
2022-10-14T06:46:09.678Z,3.20
2022-10-14T06:46:40.719Z,3.20
2022-10-14T06:47:11.749Z,3.60
2022-10-14T06:47:42.761Z,3.30